Alvaton, KY

9:12 PM CDT on September 21, 2014 (GMT -0500)
Bowling Green-Warren County Regional | Change Station
CLOSE
Current Station
Airport
Location: Bowling Green,
Elevation: 548 ft
Nearby Weather Stations

Elev 548 ft 36.96 °N, 86.42 °W | Updated 19 minutes ago

Clear
Clear
69 °F
Feels Like 69 °F
N
5
Wind Variable Wind from NW

Today
High -- | Low -- °F
--% Chance of Precip.
Yesterday
High -- | Low -- °F
Precip. -- in
6:32 AM 6:43 PM
Waning Crescent, 4% visible
Pressure 30.02 in
Visibility 10.0 miles
Clouds Scattered Clouds 7000 ft
Dew Point 48 °F
Humidity 47%
Rainfall 0.00 in
Snow Depth Not available.
UV 0 out of 12
Pollen 6.50 out of 12
Air Quality Not available.
Flu Activity Not available.
METAR KBWG 220153Z AUTO 32004KT 10SM SCT070 21/09 A3003 RMK AO2 SLP164 T02060089

More Conditions Fewer Conditions

Pressure 30.02 in
Visibility 10.0 miles
Clouds Scattered Clouds 7000 ft
Dew Point 48 °F
Humidity 47%
Rainfall 0.00 in
Snow Depth Not available.
UV 0 out of 12
Pollen 6.50 out of 12
Air Quality Not available.
Flu Activity Not available.
METAR KBWG 220153Z AUTO 32004KT 10SM SCT070 21/09 A3003 RMK AO2 SLP164 T02060089

More Conditions Fewer Conditions

10-Day Weather Forecast

Almanac

Astronomy

Sep. 21, 2014 Rise Set
Actual Time 6:32 AM CDT 6:43 PM CDT
Civil Twilight 6:06 AM CDT 7:09 PM CDT
Nautical Twilight 5:36 AM CDT 7:39 PM CDT
Astronomical Twilight 5:05 AM CDT 8:10 PM CDT
Moon 4:08 AM CDT (9/21) 5:17 PM CDT (9/21)
Length of Visible Light 13h 03m
Length of Day
12h 11m
Tomorrow will be 2m 20s shorter.
Waning Crescent, 4% of the Moon is Illuminated
Today
Waning Crescent
Sep 24
New
Oct 1
First Quarter
Oct 8
Full
Oct 15
Last Quarter

Today's Extremes

State Highs State Lows

Community

WunderPhotos

Upload Photos

1,755,347 photos uploaded!

WunderBlogs® & News

Nearby

Snow Depth

Station Depth Elevation
No new snow has been reported.

Earthquake Activity

City Distance Mag. Time & Date
Sweetwater, Tennessee 137 miles 2.5 2:54 PM CDT
2014-09-20
Minimum magnitude displayed is 2.5.

Coastal Water Temperatures

Place Temperature
No Stations Reporting

Nearby Weather Stations